Latest Weather Observations for Wadeye (Port Keats)

IDD60801

Issued at 7:31 am CST Thursday 29 January 2015 (issued every 30 minutes, with the page automatically refreshed every 10 minutes)

About weather observations | Map of weather stations | Latest weather observations for NT | Other Formats
Station Details ID: 014948 Name: PORT KEATS AIRPORT Lat: -14.25 Lon: 129.53 Height: 28.0 m
Data from the previous 72 hours. | See also: Recent months at Wadeye (Port Keats)
Date/Time
CST
Temp
°C
App
Temp
°C
Dew
Point
Rel
Hum
%
Delta-T
°C
Wind Press
QNH
hPa
Press
MSL
hPa
Rain
since 9 am
mm
Dir
 
Spd
km/h
Gust
km/h
Spd
kts
Gust
kts
29/07:30am 23.7 29.0 23.0 96 0.5 CALM 0 0 0 0 1006.5 1006.3 78.0
29/07:00am 23.5 28.6 22.7 95 0.5 CALM 0 0 0 0 1005.9 1005.7 78.0
29/06:30am 23.5 28.5 22.5 94 0.7 CALM 0 0 0 0 1005.8 1005.6 78.0
29/06:00am 23.5 27.6 22.3 93 0.8 WNW 4 7 2 4 1005.9 1005.7 78.0
29/05:30am 23.8 27.1 22.6 93 0.8 NNW 9 13 5 7 1006.0 1005.8 77.8
29/05:00am 24.1 27.8 23.2 95 0.6 N 9 11 5 6 1006.0 1005.8 77.4
29/04:30am 24.0 27.6 23.1 95 0.6 N 9 13 5 7 1005.9 1005.7 76.8
29/04:00am 24.0 27.4 23.3 96 0.5 N 11 13 6 7 1006.1 1005.9 75.4
29/03:30am 23.8 26.5 22.9 95 0.6 NNW 13 17 7 9 1006.3 1006.1 73.4
29/03:00am 24.0 27.0 23.3 96 0.5 N 13 19 7 10 1006.3 1006.1 71.8
29/02:30am 23.9 26.8 23.2 96 0.5 N 13 20 7 11 1006.2 1006.0 71.0
29/02:00am 23.8 26.7 23.1 96 0.5 N 13 19 7 10 1006.5 1006.3 70.8
29/01:30am 23.0 24.0 22.2 95 0.5 NNE 20 28 11 15 1006.2 1006.0 61.8
29/01:00am 23.8 24.7 22.6 93 0.8 ENE 22 41 12 22 1006.4 1006.2 32.4
29/12:30am 26.4 30.9 23.9 86 1.7 ESE 7 9 4 5 1005.9 1005.7 0.6
29/12:00am 26.0 31.8 24.0 89 1.4 CALM 0 0 0 0 1006.5 1006.3 0.6
 
Date/Time
CST
Temp
°C
App
Temp
°C
Dew
Point
Rel
Hum
%
Delta-T
°C
Wind Press
QNH
hPa
Press
MSL
hPa
Rain
since 9 am
mm
Dir
 
Spd
km/h
Gust
km/h
Spd
kts
Gust
kts
28/11:30pm 26.2 32.3 24.4 90 1.2 CALM 0 0 0 0 1006.6 1006.4 0.6
28/11:00pm 25.9 31.7 23.9 89 1.4 CALM 0 0 0 0 1006.7 1006.5 0.6
28/10:30pm 26.0 31.8 23.9 88 1.4 CALM 0 0 0 0 1006.6 1006.4 0.6
28/10:00pm 25.7 29.9 23.4 87 1.6 ESE 7 11 4 6 1006.4 1006.2 0.4
28/09:30pm 25.8 30.5 23.3 86 1.7 E 4 7 2 4 1005.8 1005.6 0.4
28/09:00pm 25.7 30.3 22.4 82 2.2 SSE 2 9 1 5 1005.4 1005.2 0.4
28/08:30pm 26.2 29.3 21.4 75 3.2 NW 7 11 4 6 1005.1 1004.9 0.0
28/08:00pm 27.1 29.7 20.4 66 4.4 S 7 11 4 6 1004.6 1004.4 0.0
28/07:30pm 28.9 31.0 20.9 62 5.3 SSW 11 28 6 15 1004.6 1004.4 0.0
28/07:00pm 30.5 33.6 22.1 61 5.7 W 9 13 5 7 1004.0 1003.7 0.0
28/06:30pm 30.9 32.8 21.4 57 6.4 WNW 13 17 7 9 1003.5 1003.2 0.0
28/06:00pm 31.1 33.4 22.1 58 6.1 WNW 13 20 7 11 1003.1 1002.8 0.0
28/05:30pm 32.1 35.8 23.3 59 6.1 WNW 9 15 5 8 1002.7 1002.4 0.0
28/05:00pm 32.2 35.0 23.7 61 5.9 NW 15 20 8 11 1002.4 1002.1 0.0
28/04:30pm 32.6 36.0 24.1 61 6.0 NW 13 20 7 11 1002.2 1001.9 0.0
28/04:00pm 32.1 36.2 23.9 62 5.7 NNW 9 15 5 8 1002.5 1002.2 0.0
28/03:30pm 32.2 36.1 22.6 57 6.6 E 6 11 3 6 1002.9 1002.6 0.0
28/03:00pm 32.0 35.5 22.1 55 6.8 ESE 7 13 4 7 1003.3 1003.0 0.0
28/02:30pm 32.0 35.3 21.8 54 6.9 ENE 7 13 4 7 1003.8 1003.5 0.0
28/02:00pm 32.4 36.3 22.5 56 6.8 SE 6 17 3 9 1004.0 1003.7 0.0
28/01:30pm 32.0 35.0 20.9 52 7.5 SE 6 13 3 7 1004.6 1004.4 0.0
28/01:00pm 32.1 35.9 21.6 53 7.1 NE 4 17 2 9 1005.0 1004.8 0.0
28/12:30pm 32.0 35.2 21.2 52 7.3 NE 6 15 3 8 1005.3 1005.1 0.0
28/12:00pm 31.9 34.8 21.7 54 6.9 SE 9 15 5 8 1005.6 1005.4 0.0
28/11:30am 31.5 34.3 20.4 51 7.4 S 6 11 3 6 1006.0 1005.8 0.0
28/11:00am 31.1 34.7 21.3 56 6.6 S 4 9 2 5 1006.2 1006.0 0.0
28/10:30am 30.7 33.7 22.0 59 5.9 SSE 9 13 5 7 1006.1 1005.9 0.0
28/10:00am 29.7 32.4 21.4 61 5.6 S 9 15 5 8 1006.2 1006.0 0.0
28/09:30am 28.9 32.4 22.2 67 4.5 S 7 11 4 6 1006.1 1005.9 0.0
28/09:00am 28.1 30.5 20.9 65 4.8 SSE 9 11 5 6 1005.9 1005.7 0.0
28/08:30am 26.8 30.1 21.8 74 3.4 SE 7 11 4 6 1005.9 1005.7 0.0
28/08:00am 25.5 29.1 23.0 86 1.7 SE 9 13 5 7 1005.7 1005.5 0.0
28/07:30am 25.0 30.4 23.2 90 1.2 CALM 0 6 0 3 1005.5 1005.3 0.0
28/07:00am 23.8 28.9 22.6 93 0.8 CALM 0 0 0 0 1005.2 1005.0 0.0
28/06:30am 24.0 28.9 22.4 91 1.1 CALM 0 0 0 0 1004.9 1004.7 0.0
28/06:00am 24.2 28.1 22.6 91 1.1 ESE 6 9 3 5 1004.7 1004.5 0.0
28/05:30am 24.4 29.7 23.0 92 0.9 CALM 0 0 0 0 1004.4 1004.2 0.0
28/05:00am 24.4 29.6 22.8 91 1.1 CALM 0 0 0 0 1004.2 1004.0 0.0
28/04:30am 24.4 29.6 22.8 91 1.1 CALM 0 0 0 0 1004.1 1003.9 0.0
28/04:00am 24.4 29.4 22.5 89 1.3 CALM 0 0 0 0 1004.2 1004.0 0.0
28/03:30am 24.7 28.6 22.6 88 1.4 SSE 6 9 3 5 1004.2 1004.0 0.0
28/03:00am 24.7 28.3 22.4 87 1.5 E 7 9 4 5 1004.2 1004.0 0.0
28/02:30am 24.7 28.2 22.8 89 1.3 SE 9 11 5 6 1004.5 1004.3 0.0
28/02:00am 24.9 30.2 23.0 89 1.3 CALM 0 6 0 3 1005.2 1005.0 0.0
28/01:30am 24.6 28.6 22.7 89 1.3 WSW 6 7 3 4 1006.1 1005.9 0.0
28/01:00am 24.9 28.7 22.8 88 1.4 NW 7 9 4 5 1007.0 1006.8 0.0
28/12:30am 24.8 30.0 22.9 89 1.3 CALM 0 0 0 0 1007.1 1006.9 0.0
28/12:00am 24.8 29.8 22.5 87 1.5 CALM 0 0 0 0 1007.5 1007.3 0.0
 
Date/Time
CST
Temp
°C
App
Temp
°C
Dew
Point
Rel
Hum
%
Delta-T
°C
Wind Press
QNH
hPa
Press
MSL
hPa
Rain
since 9 am
mm
Dir
 
Spd
km/h
Gust
km/h
Spd
kts
Gust
kts
27/11:30pm 24.9 29.3 22.8 88 1.4 SW 4 7 2 4 1007.8 1007.6 0.0
27/11:00pm 25.1 29.3 22.4 85 1.8 SSE 4 7 2 4 1007.8 1007.6 0.0
27/10:30pm 25.1 29.6 22.2 84 1.9 SE 2 9 1 5 1007.8 1007.6 0.0
27/10:00pm 25.1 28.5 22.0 83 2.1 ESE 7 11 4 6 1007.5 1007.3 0.0
27/09:30pm 25.1 27.8 22.2 84 1.9 SE 11 15 6 8 1007.4 1007.2 0.0
27/09:00pm 25.2 27.4 21.9 82 2.2 SE 13 17 7 9 1007.2 1007.0 0.0
27/08:30pm 25.3 26.7 21.8 81 2.3 SE 17 24 9 13 1006.5 1006.3 0.0
27/08:00pm 25.6 27.0 21.9 80 2.5 ESE 17 20 9 11 1006.2 1006.0 0.0
27/07:30pm 25.7 26.6 21.6 78 2.7 SSE 19 24 10 13 1005.5 1005.3 0.0
27/07:00pm 25.5 24.4 21.8 80 2.5 SSE 30 43 16 23 1005.8 1005.6 0.0
27/06:44pm 26.0 25.2 21.7 77 2.9 S 28 46 15 25 1005.7 1005.5 0.0
27/06:30pm 27.4 27.5 21.9 72 3.7 SSW 24 48 13 26 1005.5 1005.3 0.0
27/06:00pm 30.7 35.2 23.9 67 4.7 WSW 7 11 4 6 1004.3 1004.1 0.0
27/05:30pm 31.7 36.7 24.8 67 4.9 W 7 11 4 6 1004.1 1003.9 0.0
27/05:00pm 31.2 35.2 23.8 64 5.1 W 9 15 5 8 1003.6 1003.3 0.0
27/04:30pm 31.1 34.7 23.7 64 5.1 NW 11 15 6 8 1003.5 1003.2 0.0
27/04:00pm 31.0 34.9 24.9 70 4.3 NW 13 19 7 10 1003.4 1003.1 0.0
27/03:30pm 30.4 34.7 25.5 75 3.5 NNW 13 19 7 10 1003.6 1003.3 0.0
27/03:00pm 29.0 35.0 24.3 76 3.3 CALM 0 0 0 0 1004.3 1004.1 0.0
27/02:30pm 28.6 32.8 23.5 74 3.5 WSW 7 9 4 5 1004.7 1004.5 0.0
27/02:00pm 28.2 33.8 23.6 76 3.2 CALM 0 6 0 3 1005.2 1005.0 0.0
27/01:30pm 27.2 30.5 22.6 76 3.1 SSE 9 17 5 9 1005.7 1005.5 0.0
27/01:00pm 26.2 29.2 22.7 81 2.4 NE 11 13 6 7 1006.0 1005.8 0.0
27/12:30pm 27.8 30.1 22.7 74 3.5 NE 15 22 8 12 1006.4 1006.2 0.0
27/12:00pm 29.9 33.8 24.3 72 3.9 NW 11 17 6 9 1006.4 1006.2 0.0
27/11:30am 29.8 33.8 24.4 73 3.8 WNW 11 19 6 10 1006.8 1006.6 0.0
27/11:00am 32.1 36.7 24.7 65 5.2 W 9 15 5 8 1007.4 1007.2 0.0
27/10:30am 31.5 36.2 23.9 64 5.3 NW 6 11 3 6 1007.7 1007.5 0.0
27/10:00am 31.7 37.7 26.0 72 4.1 N 6 11 3 6 1007.8 1007.6 0.0
27/09:30am 30.3 35.3 25.4 75 3.5 NNW 9 13 5 7 1007.7 1007.5 0.0
27/09:00am 29.3 34.9 25.5 80 2.7 NNW 6 9 3 5 1007.8 1007.6 0.2
27/08:30am 28.3 35.3 25.9 87 1.7 CALM 0 0 0 0 1007.7 1007.5 0.2
27/08:00am 27.3 33.0 25.9 92 1.0 SE 7 9 4 5 1007.9 1007.7 0.2
27/07:30am 26.4 32.4 25.5 95 0.6 SE 4 7 2 4 1007.6 1007.4 0.2
27/07:00am 26.1 32.6 25.1 94 0.7 CALM 0 0 0 0 1007.1 1006.9 0.2
27/06:30am 25.9 32.2 24.7 93 0.8 CALM 0 0 0 0 1006.7 1006.5 0.2
27/06:00am 26.0 32.2 24.6 92 1.0 CALM 0 0 0 0 1006.7 1006.5 0.2
27/05:30am 26.5 32.8 24.7 90 1.3 CALM 0 0 0 0 1006.2 1006.0 0.2
27/05:00am 26.6 31.9 25.0 91 1.1 ESE 6 7 3 4 1005.8 1005.6 0.2
27/04:30am 26.7 31.9 25.1 91 1.1 SE 7 11 4 6 1005.6 1005.4 0.2
27/04:00am 26.7 31.9 25.1 91 1.1 SE 7 7 4 4 1005.2 1005.0 0.2
27/03:30am 27.0 33.3 24.8 88 1.5 CALM 0 0 0 0 1004.7 1004.5 0.2
27/03:00am 27.5 33.6 24.5 84 2.1 CALM 0 0 0 0 1004.8 1004.6 0.2
27/02:30am 27.7 32.8 24.7 84 2.1 W 6 9 3 5 1004.9 1004.7 0.2
27/02:00am 27.8 33.0 24.8 84 2.1 NW 6 7 3 4 1005.4 1005.2 0.2
27/01:30am 27.9 33.1 25.1 85 2.0 W 7 9 4 5 1005.9 1005.7 0.2
27/01:00am 28.0 33.1 25.0 84 2.1 WSW 7 11 4 6 1006.7 1006.5 0.2
27/12:30am 28.1 32.7 24.7 82 2.4 W 9 13 5 7 1007.0 1006.8 0.2
27/12:00am 28.2 32.6 24.4 80 2.6 W 9 17 5 9 1007.8 1007.6 0.2
 
Date/Time
CST
Temp
°C
App
Temp
°C
Dew
Point
Rel
Hum
%
Delta-T
°C
Wind Press
QNH
hPa
Press
MSL
hPa
Rain
since 9 am
mm
Dir
 
Spd
km/h
Gust
km/h
Spd
kts
Gust
kts
26/11:30pm 28.4 31.9 24.2 78 2.9 W 13 19 7 10 1008.3 1008.1 0.2
26/11:00pm 28.3 32.4 24.5 80 2.6 WNW 11 19 6 10 1008.1 1007.9 0.2
26/10:30pm 28.2 33.1 25.2 84 2.1 WNW 9 15 5 8 1008.0 1007.8 0.2
26/10:00pm 27.7 32.5 24.5 83 2.2 WNW 7 11 4 6 1007.8 1007.6 0.2
26/09:30pm 27.9 32.8 24.3 81 2.5 WNW 6 9 3 5 1007.5 1007.3 0.2
26/09:00pm 28.1 33.0 24.3 80 2.6 WNW 6 9 3 5 1007.4 1007.2 0.2
26/08:30pm 28.2 32.7 24.6 81 2.5 NW 9 13 5 7 1007.0 1006.8 0.2
26/08:00pm 28.4 33.3 24.4 79 2.8 WNW 6 7 3 4 1006.7 1006.5 0.2
26/07:30pm 28.8 33.0 24.1 76 3.3 NNW 9 11 5 6 1006.3 1006.1 0.2
26/07:00pm 29.1 33.5 24.4 76 3.3 NW 9 13 5 7 1006.1 1005.9 0.2
26/06:30pm 29.4 33.3 24.3 74 3.6 NW 11 17 6 9 1005.7 1005.5 0.2
26/06:00pm 29.5 32.7 23.7 71 4.0 NNW 13 19 7 10 1005.4 1005.2 0.2
26/05:30pm 29.9 34.1 24.1 71 4.0 NW 9 15 5 8 1004.9 1004.7 0.2
26/05:00pm 30.4 34.7 24.3 70 4.3 NW 9 15 5 8 1004.8 1004.6 0.2
26/04:30pm 30.4 34.4 25.0 73 3.8 NNW 13 17 7 9 1005.0 1004.8 0.2
26/04:00pm 30.6 35.3 25.0 72 3.9 NW 9 13 5 7 1005.2 1005.0 0.2
26/03:30pm 30.2 34.4 24.1 70 4.3 NW 9 15 5 8 1005.5 1005.3 0.2
26/03:00pm 30.2 34.4 24.8 73 3.8 NW 11 17 6 9 1006.2 1006.0 0.2
26/02:30pm 30.4 34.2 24.1 69 4.4 N 11 17 6 9 1006.4 1006.2 0.2
26/02:00pm 30.6 34.2 24.3 69 4.4 NNE 13 15 7 8 1006.6 1006.4 0.2
26/01:30pm 30.8 34.3 22.9 62 5.4 NE 9 13 5 7 1007.3 1007.1 0.2
26/01:00pm 31.0 34.9 22.6 61 5.7 ENE 6 7 3 4 1008.4 1008.2 0.2
26/12:30pm 31.2 34.5 21.9 57 6.3 ESE 7 13 4 7 1008.9 1008.7 0.2
26/12:00pm 31.6 34.2 21.2 54 7.0 ESE 9 19 5 10 1008.7 1008.5 0.2
26/11:30am 31.0 35.6 24.1 66 4.8 NE 7 11 4 6 1008.7 1008.5 0.2
26/11:00am 30.6 34.6 23.8 67 4.7 SE 9 13 5 7 1009.0 1008.8 0.2
26/10:30am 29.7 32.4 22.9 67 4.7 SSE 13 19 7 10 1009.1 1008.9 0.2
26/10:00am 29.5 32.4 23.9 72 3.9 SE 15 20 8 11 1009.4 1009.2 0.2
26/09:30am 28.7 31.2 23.8 75 3.4 SE 17 24 9 13 1009.2 1009.0 0.0
26/09:00am 27.9 30.6 23.5 77 3.0 SSE 15 20 8 11 1009.2 1009.0 3.4
26/08:30am 27.5 32.0 22.9 76 3.1 SE 4 7 2 4 1008.9 1008.7 3.4
26/08:00am 26.9 30.9 22.7 78 2.8 ESE 6 9 3 5 1008.9 1008.7 3.4

Other Formats:

Comma delimited format used in spreadsheet applications
http://www.bom.gov.au/fwo/IDD60801/IDD60801.95111.axf

JavaScript Object Notation format (JSON) in row-major order
http://www.bom.gov.au/fwo/IDD60801/IDD60801.95111.json